Green Bay (GRB/KGRB)

Map

Destinations

Information

Location
Green Bay, WI
Local Time
17:39 / 5:39 pm
GMT Time
22:39 / 10:39 pm
Gates
No FAA reported delays
METAR KGRB 242153Z 06003KT 10SM FEW040 24/14 A3008 RMK AO2 SLP186 T02390144
TAF KGRB 242129Z 2421/2518 07006KT P6SM FEW030 FM250200 13004KT P6SM SKC FM251700 18008KT P6SM SCT250